sensor_id;sensor_type;location;lat;lon;timestamp;P1;durP1;ratioP1;P2;durP2;ratioP2
18376;SDS011;9315;52.624;13.544;2023-04-06T00:01:18;5.47;;;2.87;;
18376;SDS011;9315;52.624;13.544;2023-04-06T00:03:46;4.40;;;3.27;;
18376;SDS011;9315;52.624;13.544;2023-04-06T00:06:13;12.93;;;3.87;;
18376;SDS011;9315;52.624;13.544;2023-04-06T00:08:42;5.90;;;3.33;;
18376;SDS011;9315;52.624;13.544;2023-04-06T00:11:10;8.37;;;4.03;;
18376;SDS011;9315;52.624;13.544;2023-04-06T00:13:37;4.80;;;3.23;;
18376;SDS011;9315;52.624;13.544;2023-04-06T00:16:05;4.20;;;3.17;;
18376;SDS011;9315;52.624;13.544;2023-04-06T00:18:32;6.17;;;3.43;;
18376;SDS011;9315;52.624;13.544;2023-04-06T00:21:00;6.77;;;3.77;;
18376;SDS011;9315;52.624;13.544;2023-04-06T00:23:27;4.87;;;3.37;;
18376;SDS011;9315;52.624;13.544;2023-04-06T00:25:54;5.93;;;3.60;;
18376;SDS011;9315;52.624;13.544;2023-04-06T00:28:21;5.50;;;3.33;;
18376;SDS011;9315;52.624;13.544;2023-04-06T00:30:52;5.03;;;3.67;;
18376;SDS011;9315;52.624;13.544;2023-04-06T00:33:21;6.50;;;3.90;;
18376;SDS011;9315;52.624;13.544;2023-04-06T00:35:50;5.13;;;3.93;;
18376;SDS011;9315;52.624;13.544;2023-04-06T00:38:21;6.40;;;3.47;;
18376;SDS011;9315;52.624;13.544;2023-04-06T00:40:48;7.33;;;4.43;;
18376;SDS011;9315;52.624;13.544;2023-04-06T00:43:16;6.50;;;3.37;;
18376;SDS011;9315;52.624;13.544;2023-04-06T00:45:43;6.97;;;3.53;;
18376;SDS011;9315;52.624;13.544;2023-04-06T00:48:11;8.63;;;3.70;;
18376;SDS011;9315;52.624;13.544;2023-04-06T00:50:38;6.07;;;4.10;;
18376;SDS011;9315;52.624;13.544;2023-04-06T00:53:05;8.23;;;4.20;;
18376;SDS011;9315;52.624;13.544;2023-04-06T00:55:32;7.87;;;3.93;;
18376;SDS011;9315;52.624;13.544;2023-04-06T00:58:02;6.63;;;4.20;;
18376;SDS011;9315;52.624;13.544;2023-04-06T01:00:30;7.47;;;4.10;;
18376;SDS011;9315;52.624;13.544;2023-04-06T01:02:58;6.53;;;4.17;;
18376;SDS011;9315;52.624;13.544;2023-04-06T01:05:26;6.57;;;4.40;;
18376;SDS011;9315;52.624;13.544;2023-04-06T01:07:53;9.40;;;4.93;;
18376;SDS011;9315;52.624;13.544;2023-04-06T01:10:27;7.00;;;4.57;;
18376;SDS011;9315;52.624;13.544;2023-04-06T01:12:55;8.03;;;4.60;;
18376;SDS011;9315;52.624;13.544;2023-04-06T01:15:22;9.97;;;4.60;;
18376;SDS011;9315;52.624;13.544;2023-04-06T01:17:51;8.27;;;4.23;;
18376;SDS011;9315;52.624;13.544;2023-04-06T01:20:19;9.87;;;4.60;;
18376;SDS011;9315;52.624;13.544;2023-04-06T01:22:46;12.30;;;4.87;;
18376;SDS011;9315;52.624;13.544;2023-04-06T01:25:13;9.40;;;4.77;;
18376;SDS011;9315;52.624;13.544;2023-04-06T01:27:40;5.70;;;3.97;;
18376;SDS011;9315;52.624;13.544;2023-04-06T01:30:08;10.13;;;4.83;;
18376;SDS011;9315;52.624;13.544;2023-04-06T01:32:36;6.77;;;3.87;;
18376;SDS011;9315;52.624;13.544;2023-04-06T01:35:04;6.30;;;3.97;;
18376;SDS011;9315;52.624;13.544;2023-04-06T01:37:31;7.07;;;4.80;;
18376;SDS011;9315;52.624;13.544;2023-04-06T01:39:59;8.27;;;5.10;;
18376;SDS011;9315;52.624;13.544;2023-04-06T01:42:26;7.63;;;4.80;;
18376;SDS011;9315;52.624;13.544;2023-04-06T01:44:54;7.70;;;4.67;;
18376;SDS011;9315;52.624;13.544;2023-04-06T01:47:21;7.57;;;4.60;;
18376;SDS011;9315;52.624;13.544;2023-04-06T01:49:48;7.60;;;4.47;;
18376;SDS011;9315;52.624;13.544;2023-04-06T01:52:16;8.67;;;5.50;;
18376;SDS011;9315;52.624;13.544;2023-04-06T01:54:43;8.87;;;4.70;;
18376;SDS011;9315;52.624;13.544;2023-04-06T01:57:11;7.13;;;4.50;;
18376;SDS011;9315;52.624;13.544;2023-04-06T01:59:38;7.17;;;4.83;;
18376;SDS011;9315;52.624;13.544;2023-04-06T02:02:07;8.07;;;4.43;;
18376;SDS011;9315;52.624;13.544;2023-04-06T02:04:35;9.67;;;5.53;;
18376;SDS011;9315;52.624;13.544;2023-04-06T02:07:02;8.07;;;4.50;;
18376;SDS011;9315;52.624;13.544;2023-04-06T02:09:29;9.80;;;4.37;;
18376;SDS011;9315;52.624;13.544;2023-04-06T02:11:56;10.70;;;5.43;;
18376;SDS011;9315;52.624;13.544;2023-04-06T02:14:26;6.90;;;4.97;;
18376;SDS011;9315;52.624;13.544;2023-04-06T02:16:53;9.33;;;5.03;;
18376;SDS011;9315;52.624;13.544;2023-04-06T02:19:21;8.70;;;5.57;;
18376;SDS011;9315;52.624;13.544;2023-04-06T02:21:51;6.27;;;4.90;;
18376;SDS011;9315;52.624;13.544;2023-04-06T02:24:18;10.17;;;5.23;;
18376;SDS011;9315;52.624;13.544;2023-04-06T02:26:46;9.37;;;5.63;;
18376;SDS011;9315;52.624;13.544;2023-04-06T02:29:13;11.30;;;6.10;;
18376;SDS011;9315;52.624;13.544;2023-04-06T02:31:40;9.37;;;5.80;;
18376;SDS011;9315;52.624;13.544;2023-04-06T02:34:07;13.03;;;6.67;;
18376;SDS011;9315;52.624;13.544;2023-04-06T02:36:37;15.03;;;7.37;;
18376;SDS011;9315;52.624;13.544;2023-04-06T02:39:04;12.70;;;7.57;;
18376;SDS011;9315;52.624;13.544;2023-04-06T02:41:31;11.20;;;7.07;;
18376;SDS011;9315;52.624;13.544;2023-04-06T02:43:59;11.37;;;7.17;;
18376;SDS011;9315;52.624;13.544;2023-04-06T02:46:26;17.57;;;8.43;;
18376;SDS011;9315;52.624;13.544;2023-04-06T02:48:53;13.43;;;7.93;;
18376;SDS011;9315;52.624;13.544;2023-04-06T02:51:20;14.63;;;8.17;;
18376;SDS011;9315;52.624;13.544;2023-04-06T02:53:48;15.80;;;8.03;;
18376;SDS011;9315;52.624;13.544;2023-04-06T02:56:15;14.77;;;6.80;;
18376;SDS011;9315;52.624;13.544;2023-04-06T02:58:42;13.43;;;8.10;;
18376;SDS011;9315;52.624;13.544;2023-04-06T03:01:10;13.00;;;7.80;;
18376;SDS011;9315;52.624;13.544;2023-04-06T03:03:37;14.10;;;6.53;;
18376;SDS011;9315;52.624;13.544;2023-04-06T03:06:04;15.37;;;7.27;;
18376;SDS011;9315;52.624;13.544;2023-04-06T03:08:32;14.37;;;7.80;;
18376;SDS011;9315;52.624;13.544;2023-04-06T03:10:59;17.33;;;8.13;;
18376;SDS011;9315;52.624;13.544;2023-04-06T03:13:26;18.13;;;6.70;;
18376;SDS011;9315;52.624;13.544;2023-04-06T03:15:53;18.77;;;8.23;;
18376;SDS011;9315;52.624;13.544;2023-04-06T03:18:22;15.80;;;7.70;;
18376;SDS011;9315;52.624;13.544;2023-04-06T03:20:51;21.73;;;8.00;;
18376;SDS011;9315;52.624;13.544;2023-04-06T03:23:22;12.33;;;7.10;;
18376;SDS011;9315;52.624;13.544;2023-04-06T03:25:49;14.40;;;7.20;;
18376;SDS011;9315;52.624;13.544;2023-04-06T03:28:16;11.20;;;6.70;;
18376;SDS011;9315;52.624;13.544;2023-04-06T03:30:44;13.17;;;6.90;;
18376;SDS011;9315;52.624;13.544;2023-04-06T03:33:12;12.93;;;6.53;;
18376;SDS011;9315;52.624;13.544;2023-04-06T03:35:39;13.63;;;6.67;;
18376;SDS011;9315;52.624;13.544;2023-04-06T03:38:06;12.90;;;7.10;;
18376;SDS011;9315;52.624;13.544;2023-04-06T03:40:35;13.43;;;7.43;;
18376;SDS011;9315;52.624;13.544;2023-04-06T03:43:03;11.37;;;6.97;;
18376;SDS011;9315;52.624;13.544;2023-04-06T03:45:31;12.13;;;6.57;;
18376;SDS011;9315;52.624;13.544;2023-04-06T03:47:58;8.57;;;6.17;;
18376;SDS011;9315;52.624;13.544;2023-04-06T03:50:25;14.03;;;7.50;;
18376;SDS011;9315;52.624;13.544;2023-04-06T03:52:52;12.70;;;7.13;;
18376;SDS011;9315;52.624;13.544;2023-04-06T03:55:20;12.40;;;7.10;;
18376;SDS011;9315;52.624;13.544;2023-04-06T03:57:47;11.67;;;6.10;;
18376;SDS011;9315;52.624;13.544;2023-04-06T04:00:14;15.20;;;6.77;;
18376;SDS011;9315;52.624;13.544;2023-04-06T04:02:42;13.47;;;7.30;;
18376;SDS011;9315;52.624;13.544;2023-04-06T04:05:09;13.87;;;7.67;;
18376;SDS011;9315;52.624;13.544;2023-04-06T04:07:37;10.50;;;5.93;;
18376;SDS011;9315;52.624;13.544;2023-04-06T04:10:04;12.63;;;5.90;;
18376;SDS011;9315;52.624;13.544;2023-04-06T04:12:32;11.63;;;6.33;;
18376;SDS011;9315;52.624;13.544;2023-04-06T04:14:59;9.57;;;5.87;;
18376;SDS011;9315;52.624;13.544;2023-04-06T04:17:26;13.03;;;6.90;;
18376;SDS011;9315;52.624;13.544;2023-04-06T04:19:53;14.07;;;7.00;;
18376;SDS011;9315;52.624;13.544;2023-04-06T04:22:21;11.67;;;6.47;;
18376;SDS011;9315;52.624;13.544;2023-04-06T04:24:48;11.87;;;6.67;;
18376;SDS011;9315;52.624;13.544;2023-04-06T04:27:15;10.50;;;6.70;;
18376;SDS011;9315;52.624;13.544;2023-04-06T04:29:42;13.07;;;6.37;;
18376;SDS011;9315;52.624;13.544;2023-04-06T04:32:10;10.20;;;6.60;;
18376;SDS011;9315;52.624;13.544;2023-04-06T04:34:37;14.10;;;7.17;;
18376;SDS011;9315;52.624;13.544;2023-04-06T04:37:06;13.30;;;6.23;;
18376;SDS011;9315;52.624;13.544;2023-04-06T04:39:33;11.60;;;6.77;;
18376;SDS011;9315;52.624;13.544;2023-04-06T04:42:00;12.00;;;6.53;;
18376;SDS011;9315;52.624;13.544;2023-04-06T04:44:28;14.07;;;7.00;;
18376;SDS011;9315;52.624;13.544;2023-04-06T04:46:55;11.90;;;7.40;;
18376;SDS011;9315;52.624;13.544;2023-04-06T04:49:24;16.93;;;7.77;;
18376;SDS011;9315;52.624;13.544;2023-04-06T04:51:51;11.80;;;7.90;;
18376;SDS011;9315;52.624;13.544;2023-04-06T04:54:19;11.47;;;6.80;;
18376;SDS011;9315;52.624;13.544;2023-04-06T04:56:46;13.63;;;7.43;;
18376;SDS011;9315;52.624;13.544;2023-04-06T04:59:13;12.93;;;8.03;;
18376;SDS011;9315;52.624;13.544;2023-04-06T05:01:40;12.77;;;6.93;;
18376;SDS011;9315;52.624;13.544;2023-04-06T05:04:20;11.23;;;7.23;;
18376;SDS011;9315;52.624;13.544;2023-04-06T05:06:47;13.03;;;7.00;;
18376;SDS011;9315;52.624;13.544;2023-04-06T05:09:15;11.93;;;7.10;;
18376;SDS011;9315;52.624;13.544;2023-04-06T05:11:43;12.67;;;7.13;;
18376;SDS011;9315;52.624;13.544;2023-04-06T05:14:11;11.37;;;6.90;;
18376;SDS011;9315;52.624;13.544;2023-04-06T05:16:39;12.33;;;6.43;;
18376;SDS011;9315;52.624;13.544;2023-04-06T05:19:06;12.40;;;6.13;;
18376;SDS011;9315;52.624;13.544;2023-04-06T05:21:33;14.40;;;5.40;;
18376;SDS011;9315;52.624;13.544;2023-04-06T05:24:00;14.13;;;6.30;;
18376;SDS011;9315;52.624;13.544;2023-04-06T05:26:28;12.27;;;5.47;;
18376;SDS011;9315;52.624;13.544;2023-04-06T05:28:56;10.40;;;6.43;;
18376;SDS011;9315;52.624;13.544;2023-04-06T05:31:23;11.57;;;6.43;;
18376;SDS011;9315;52.624;13.544;2023-04-06T05:33:51;13.60;;;6.00;;
18376;SDS011;9315;52.624;13.544;2023-04-06T05:36:18;9.37;;;5.20;;
18376;SDS011;9315;52.624;13.544;2023-04-06T05:38:45;12.57;;;6.17;;
18376;SDS011;9315;52.624;13.544;2023-04-06T05:41:13;13.70;;;6.97;;
18376;SDS011;9315;52.624;13.544;2023-04-06T05:43:40;10.73;;;5.60;;
18376;SDS011;9315;52.624;13.544;2023-04-06T05:46:07;9.13;;;5.40;;
18376;SDS011;9315;52.624;13.544;2023-04-06T05:48:34;8.70;;;5.20;;
18376;SDS011;9315;52.624;13.544;2023-04-06T05:51:02;10.07;;;5.67;;
18376;SDS011;9315;52.624;13.544;2023-04-06T05:53:32;8.20;;;4.63;;
18376;SDS011;9315;52.624;13.544;2023-04-06T05:56:02;7.70;;;4.80;;
18376;SDS011;9315;52.624;13.544;2023-04-06T05:58:30;8.33;;;5.13;;
18376;SDS011;9315;52.624;13.544;2023-04-06T06:00:59;8.83;;;4.40;;
18376;SDS011;9315;52.624;13.544;2023-04-06T06:03:27;8.37;;;4.50;;
18376;SDS011;9315;52.624;13.544;2023-04-06T06:06:00;14.33;;;5.80;;
18376;SDS011;9315;52.624;13.544;2023-04-06T06:08:31;8.67;;;5.33;;
18376;SDS011;9315;52.624;13.544;2023-04-06T06:10:58;12.63;;;5.80;;
18376;SDS011;9315;52.624;13.544;2023-04-06T06:13:26;7.17;;;5.37;;
18376;SDS011;9315;52.624;13.544;2023-04-06T06:15:53;13.40;;;5.80;;
18376;SDS011;9315;52.624;13.544;2023-04-06T06:18:21;13.30;;;4.60;;
18376;SDS011;9315;52.624;13.544;2023-04-06T06:20:48;14.37;;;5.47;;
18376;SDS011;9315;52.624;13.544;2023-04-06T06:23:15;7.60;;;4.60;;
18376;SDS011;9315;52.624;13.544;2023-04-06T06:25:43;7.70;;;4.47;;
18376;SDS011;9315;52.624;13.544;2023-04-06T06:28:10;9.20;;;5.50;;
18376;SDS011;9315;52.624;13.544;2023-04-06T06:30:37;12.03;;;4.60;;
18376;SDS011;9315;52.624;13.544;2023-04-06T06:33:04;10.73;;;4.93;;
18376;SDS011;9315;52.624;13.544;2023-04-06T06:35:32;11.10;;;5.07;;
18376;SDS011;9315;52.624;13.544;2023-04-06T06:37:59;11.73;;;5.27;;
18376;SDS011;9315;52.624;13.544;2023-04-06T06:40:26;7.90;;;5.00;;
18376;SDS011;9315;52.624;13.544;2023-04-06T06:42:54;8.17;;;4.80;;
18376;SDS011;9315;52.624;13.544;2023-04-06T06:45:21;10.20;;;4.70;;
18376;SDS011;9315;52.624;13.544;2023-04-06T06:47:51;10.13;;;4.60;;
18376;SDS011;9315;52.624;13.544;2023-04-06T06:50:20;8.77;;;4.67;;
18376;SDS011;9315;52.624;13.544;2023-04-06T06:52:48;6.73;;;3.80;;
18376;SDS011;9315;52.624;13.544;2023-04-06T06:55:15;11.53;;;4.53;;
18376;SDS011;9315;52.624;13.544;2023-04-06T06:57:45;10.60;;;4.93;;
18376;SDS011;9315;52.624;13.544;2023-04-06T07:00:15;12.90;;;4.80;;
18376;SDS011;9315;52.624;13.544;2023-04-06T07:02:43;9.67;;;4.90;;
18376;SDS011;9315;52.624;13.544;2023-04-06T07:05:10;11.43;;;4.17;;
18376;SDS011;9315;52.624;13.544;2023-04-06T07:07:52;8.70;;;4.70;;
18376;SDS011;9315;52.624;13.544;2023-04-06T07:10:21;8.27;;;4.30;;
18376;SDS011;9315;52.624;13.544;2023-04-06T07:12:48;8.53;;;4.50;;
18376;SDS011;9315;52.624;13.544;2023-04-06T07:15:16;8.57;;;4.30;;
18376;SDS011;9315;52.624;13.544;2023-04-06T07:17:43;6.37;;;3.93;;
18376;SDS011;9315;52.624;13.544;2023-04-06T07:20:11;7.30;;;3.80;;
18376;SDS011;9315;52.624;13.544;2023-04-06T07:22:42;7.30;;;3.63;;
18376;SDS011;9315;52.624;13.544;2023-04-06T07:25:11;8.53;;;4.17;;
18376;SDS011;9315;52.624;13.544;2023-04-06T07:27:38;6.50;;;3.80;;
18376;SDS011;9315;52.624;13.544;2023-04-06T07:30:06;8.87;;;4.30;;
18376;SDS011;9315;52.624;13.544;2023-04-06T07:32:35;12.90;;;3.93;;
18376;SDS011;9315;52.624;13.544;2023-04-06T07:35:03;14.17;;;4.33;;
18376;SDS011;9315;52.624;13.544;2023-04-06T07:37:31;6.73;;;3.80;;
18376;SDS011;9315;52.624;13.544;2023-04-06T07:39:58;8.13;;;4.00;;
18376;SDS011;9315;52.624;13.544;2023-04-06T07:42:25;5.20;;;3.80;;
18376;SDS011;9315;52.624;13.544;2023-04-06T07:44:52;9.83;;;3.70;;
18376;SDS011;9315;52.624;13.544;2023-04-06T07:47:19;9.57;;;3.97;;
18376;SDS011;9315;52.624;13.544;2023-04-06T07:49:47;6.83;;;3.73;;
18376;SDS011;9315;52.624;13.544;2023-04-06T07:52:14;5.27;;;3.50;;
18376;SDS011;9315;52.624;13.544;2023-04-06T07:54:43;6.90;;;3.07;;
18376;SDS011;9315;52.624;13.544;2023-04-06T07:57:11;7.13;;;3.20;;
18376;SDS011;9315;52.624;13.544;2023-04-06T07:59:39;14.97;;;4.03;;
18376;SDS011;9315;52.624;13.544;2023-04-06T08:02:07;6.33;;;3.07;;
18376;SDS011;9315;52.624;13.544;2023-04-06T08:09:00;5.27;;;2.63;;
18376;SDS011;9315;52.624;13.544;2023-04-06T08:11:27;5.63;;;2.60;;
18376;SDS011;9315;52.624;13.544;2023-04-06T08:13:54;6.53;;;2.47;;
18376;SDS011;9315;52.624;13.544;2023-04-06T08:16:23;5.57;;;2.77;;
18376;SDS011;9315;52.624;13.544;2023-04-06T08:18:50;4.37;;;2.60;;
18376;SDS011;9315;52.624;13.544;2023-04-06T08:21:18;4.77;;;2.13;;
18376;SDS011;9315;52.624;13.544;2023-04-06T08:23:45;4.13;;;2.40;;
18376;SDS011;9315;52.624;13.544;2023-04-06T08:26:12;5.43;;;2.30;;
18376;SDS011;9315;52.624;13.544;2023-04-06T08:28:39;5.50;;;2.37;;
18376;SDS011;9315;52.624;13.544;2023-04-06T08:31:08;4.87;;;2.30;;
18376;SDS011;9315;52.624;13.544;2023-04-06T08:33:35;9.90;;;2.87;;
18376;SDS011;9315;52.624;13.544;2023-04-06T08:36:12;3.83;;;2.20;;
18376;SDS011;9315;52.624;13.544;2023-04-06T08:38:42;4.57;;;2.30;;
18376;SDS011;9315;52.624;13.544;2023-04-06T08:41:10;4.53;;;2.60;;
18376;SDS011;9315;52.624;13.544;2023-04-06T08:43:49;4.93;;;2.33;;
18376;SDS011;9315;52.624;13.544;2023-04-06T08:46:25;4.57;;;2.40;;
18376;SDS011;9315;52.624;13.544;2023-04-06T08:48:56;7.10;;;2.07;;
18376;SDS011;9315;52.624;13.544;2023-04-06T08:51:27;4.43;;;1.97;;
18376;SDS011;9315;52.624;13.544;2023-04-06T08:53:59;4.53;;;1.87;;
18376;SDS011;9315;52.624;13.544;2023-04-06T08:56:27;4.23;;;1.90;;
18376;SDS011;9315;52.624;13.544;2023-04-06T08:58:55;8.53;;;2.00;;
18376;SDS011;9315;52.624;13.544;2023-04-06T09:01:25;5.63;;;1.70;;
18376;SDS011;9315;52.624;13.544;2023-04-06T09:03:58;3.30;;;1.60;;
18376;SDS011;9315;52.624;13.544;2023-04-06T09:06:27;5.97;;;1.90;;
18376;SDS011;9315;52.624;13.544;2023-04-06T09:08:57;5.90;;;2.17;;
18376;SDS011;9315;52.624;13.544;2023-04-06T09:11:27;11.10;;;2.07;;
18376;SDS011;9315;52.624;13.544;2023-04-06T09:13:54;4.07;;;1.70;;
18376;SDS011;9315;52.624;13.544;2023-04-06T09:16:24;2.33;;;1.50;;
18376;SDS011;9315;52.624;13.544;2023-04-06T09:18:52;3.07;;;1.60;;
18376;SDS011;9315;52.624;13.544;2023-04-06T09:21:19;5.27;;;1.70;;
18376;SDS011;9315;52.624;13.544;2023-04-06T09:23:59;3.67;;;1.60;;
18376;SDS011;9315;52.624;13.544;2023-04-06T09:26:28;6.80;;;1.90;;
18376;SDS011;9315;52.624;13.544;2023-04-06T09:28:59;4.23;;;1.80;;
18376;SDS011;9315;52.624;13.544;2023-04-06T09:31:29;6.47;;;1.77;;
18376;SDS011;9315;52.624;13.544;2023-04-06T09:34:01;3.03;;;1.70;;
18376;SDS011;9315;52.624;13.544;2023-04-06T09:36:29;7.00;;;1.60;;
18376;SDS011;9315;52.624;13.544;2023-04-06T09:39:00;2.83;;;1.50;;
18376;SDS011;9315;52.624;13.544;2023-04-06T09:41:32;2.90;;;1.60;;
18376;SDS011;9315;52.624;13.544;2023-04-06T09:44:02;3.23;;;1.97;;
18376;SDS011;9315;52.624;13.544;2023-04-06T09:46:40;4.97;;;2.03;;
18376;SDS011;9315;52.624;13.544;2023-04-06T09:49:23;3.77;;;2.00;;
18376;SDS011;9315;52.624;13.544;2023-04-06T09:52:00;6.93;;;1.80;;
18376;SDS011;9315;52.624;13.544;2023-04-06T09:54:32;4.47;;;1.50;;
18376;SDS011;9315;52.624;13.544;2023-04-06T09:57:15;2.73;;;1.53;;
18376;SDS011;9315;52.624;13.544;2023-04-06T10:05:55;3.53;;;1.80;;
18376;SDS011;9315;52.624;13.544;2023-04-06T10:08:37;2.23;;;1.60;;
18376;SDS011;9315;52.624;13.544;2023-04-06T10:11:12;2.63;;;1.50;;
18376;SDS011;9315;52.624;13.544;2023-04-06T10:13:39;2.80;;;1.57;;
18376;SDS011;9315;52.624;13.544;2023-04-06T10:16:08;3.37;;;1.60;;
18376;SDS011;9315;52.624;13.544;2023-04-06T10:18:36;4.47;;;1.10;;
18376;SDS011;9315;52.624;13.544;2023-04-06T10:21:09;1.93;;;1.20;;
18376;SDS011;9315;52.624;13.544;2023-04-06T10:23:47;2.20;;;1.10;;
18376;SDS011;9315;52.624;13.544;2023-04-06T10:26:23;3.20;;;2.20;;
18376;SDS011;9315;52.624;13.544;2023-04-06T10:28:51;2.40;;;1.33;;
18376;SDS011;9315;52.624;13.544;2023-04-06T10:31:25;3.47;;;1.50;;
18376;SDS011;9315;52.624;13.544;2023-04-06T10:33:58;3.20;;;1.30;;
18376;SDS011;9315;52.624;13.544;2023-04-06T10:36:28;2.67;;;1.20;;
18376;SDS011;9315;52.624;13.544;2023-04-06T10:39:02;4.10;;;1.50;;
18376;SDS011;9315;52.624;13.544;2023-04-06T10:41:36;4.37;;;1.83;;
18376;SDS011;9315;52.624;13.544;2023-04-06T10:44:23;2.93;;;1.30;;
18376;SDS011;9315;52.624;13.544;2023-04-06T10:46:52;2.13;;;1.30;;
18376;SDS011;9315;52.624;13.544;2023-04-06T10:49:24;2.80;;;1.27;;
18376;SDS011;9315;52.624;13.544;2023-04-06T10:51:56;2.50;;;1.23;;
18376;SDS011;9315;52.624;13.544;2023-04-06T10:54:24;3.23;;;1.47;;
18376;SDS011;9315;52.624;13.544;2023-04-06T10:56:57;2.23;;;1.30;;
18376;SDS011;9315;52.624;13.544;2023-04-06T10:59:24;3.80;;;1.43;;
18376;SDS011;9315;52.624;13.544;2023-04-06T11:01:51;4.47;;;1.50;;
18376;SDS011;9315;52.624;13.544;2023-04-06T11:04:21;2.63;;;1.10;;
18376;SDS011;9315;52.624;13.544;2023-04-06T11:06:49;1.70;;;0.80;;
18376;SDS011;9315;52.624;13.544;2023-04-06T11:09:27;2.30;;;1.20;;
18376;SDS011;9315;52.624;13.544;2023-04-06T11:11:57;2.23;;;1.10;;
18376;SDS011;9315;52.624;13.544;2023-04-06T11:14:25;1.83;;;0.97;;
18376;SDS011;9315;52.624;13.544;2023-04-06T11:16:53;1.60;;;1.10;;
18376;SDS011;9315;52.624;13.544;2023-04-06T11:19:20;3.17;;;1.27;;
18376;SDS011;9315;52.624;13.544;2023-04-06T11:21:48;2.73;;;1.40;;
18376;SDS011;9315;52.624;13.544;2023-04-06T11:24:16;5.40;;;1.67;;
18376;SDS011;9315;52.624;13.544;2023-04-06T11:26:56;4.40;;;1.53;;
18376;SDS011;9315;52.624;13.544;2023-04-06T11:29:28;4.90;;;1.30;;
18376;SDS011;9315;52.624;13.544;2023-04-06T11:32:04;3.50;;;1.60;;
18376;SDS011;9315;52.624;13.544;2023-04-06T11:34:34;1.63;;;1.00;;
18376;SDS011;9315;52.624;13.544;2023-04-06T11:37:09;6.50;;;1.20;;
18376;SDS011;9315;52.624;13.544;2023-04-06T11:39:39;2.33;;;1.20;;
18376;SDS011;9315;52.624;13.544;2023-04-06T11:42:20;3.37;;;1.07;;
18376;SDS011;9315;52.624;13.544;2023-04-06T11:44:56;3.20;;;1.60;;
18376;SDS011;9315;52.624;13.544;2023-04-06T11:47:35;3.10;;;1.47;;
18376;SDS011;9315;52.624;13.544;2023-04-06T11:50:07;1.77;;;1.03;;
18376;SDS011;9315;52.624;13.544;2023-04-06T11:52:40;5.50;;;1.30;;
18376;SDS011;9315;52.624;13.544;2023-04-06T11:55:12;2.83;;;1.07;;
18376;SDS011;9315;52.624;13.544;2023-04-06T11:57:43;2.23;;;1.13;;
18376;SDS011;9315;52.624;13.544;2023-04-06T12:00:13;2.47;;;1.37;;
18376;SDS011;9315;52.624;13.544;2023-04-06T12:02:45;2.37;;;1.47;;
18376;SDS011;9315;52.624;13.544;2023-04-06T12:05:14;4.57;;;1.67;;
18376;SDS011;9315;52.624;13.544;2023-04-06T12:07:41;2.80;;;1.27;;
18376;SDS011;9315;52.624;13.544;2023-04-06T12:10:09;4.77;;;1.70;;
18376;SDS011;9315;52.624;13.544;2023-04-06T12:12:37;3.60;;;1.50;;
18376;SDS011;9315;52.624;13.544;2023-04-06T12:15:04;4.23;;;1.87;;
18376;SDS011;9315;52.624;13.544;2023-04-06T12:17:33;2.70;;;1.53;;
18376;SDS011;9315;52.624;13.544;2023-04-06T12:20:00;1.90;;;1.37;;
18376;SDS011;9315;52.624;13.544;2023-04-06T12:22:39;4.37;;;1.50;;
18376;SDS011;9315;52.624;13.544;2023-04-06T12:25:06;2.73;;;1.30;;
18376;SDS011;9315;52.624;13.544;2023-04-06T12:27:34;4.30;;;1.50;;
18376;SDS011;9315;52.624;13.544;2023-04-06T12:30:01;3.50;;;1.50;;
18376;SDS011;9315;52.624;13.544;2023-04-06T12:32:29;3.73;;;1.50;;
18376;SDS011;9315;52.624;13.544;2023-04-06T12:34:56;4.20;;;1.53;;
18376;SDS011;9315;52.624;13.544;2023-04-06T12:37:23;3.30;;;1.90;;
18376;SDS011;9315;52.624;13.544;2023-04-06T12:39:50;2.17;;;1.27;;
18376;SDS011;9315;52.624;13.544;2023-04-06T12:42:19;2.93;;;1.50;;
18376;SDS011;9315;52.624;13.544;2023-04-06T12:44:46;7.63;;;1.53;;
18376;SDS011;9315;52.624;13.544;2023-04-06T12:47:13;2.57;;;1.43;;
18376;SDS011;9315;52.624;13.544;2023-04-06T12:49:41;7.57;;;1.50;;
18376;SDS011;9315;52.624;13.544;2023-04-06T12:52:09;2.23;;;1.30;;
18376;SDS011;9315;52.624;13.544;2023-04-06T12:54:36;2.07;;;1.43;;
18376;SDS011;9315;52.624;13.544;2023-04-06T12:57:04;7.57;;;1.80;;
18376;SDS011;9315;52.624;13.544;2023-04-06T12:59:31;4.47;;;1.50;;
18376;SDS011;9315;52.624;13.544;2023-04-06T13:02:01;2.45;;;1.50;;
18376;SDS011;9315;52.624;13.544;2023-04-06T13:04:31;5.43;;;1.33;;
18376;SDS011;9315;52.624;13.544;2023-04-06T13:06:58;2.13;;;1.50;;
18376;SDS011;9315;52.624;13.544;2023-04-06T13:09:25;2.75;;;1.25;;
18376;SDS011;9315;52.624;13.544;2023-04-06T13:11:52;1.93;;;1.30;;
18376;SDS011;9315;52.624;13.544;2023-04-06T13:14:20;2.33;;;1.60;;
18376;SDS011;9315;52.624;13.544;2023-04-06T13:16:47;2.13;;;1.20;;
18376;SDS011;9315;52.624;13.544;2023-04-06T13:19:15;1.52;;;1.38;;
18376;SDS011;9315;52.624;13.544;2023-04-06T13:21:44;2.38;;;1.27;;
18376;SDS011;9315;52.624;13.544;2023-04-06T13:24:11;1.88;;;1.30;;
18376;SDS011;9315;52.624;13.544;2023-04-06T13:26:41;3.17;;;1.40;;
18376;SDS011;9315;52.624;13.544;2023-04-06T13:29:08;5.97;;;5.35;;
18376;SDS011;9315;52.624;13.544;2023-04-06T13:31:36;6.00;;;1.55;;
18376;SDS011;9315;52.624;13.544;2023-04-06T13:34:04;2.40;;;1.27;;
18376;SDS011;9315;52.624;13.544;2023-04-06T13:36:32;2.72;;;1.38;;
18376;SDS011;9315;52.624;13.544;2023-04-06T13:38:59;2.20;;;1.20;;
18376;SDS011;9315;52.624;13.544;2023-04-06T13:41:26;2.13;;;1.23;;
18376;SDS011;9315;52.624;13.544;2023-04-06T13:43:53;3.65;;;1.58;;
18376;SDS011;9315;52.624;13.544;2023-04-06T13:46:21;2.75;;;1.70;;
18376;SDS011;9315;52.624;13.544;2023-04-06T13:48:53;2.10;;;1.38;;
18376;SDS011;9315;52.624;13.544;2023-04-06T13:51:31;2.33;;;1.25;;
18376;SDS011;9315;52.624;13.544;2023-04-06T13:53:58;5.47;;;4.97;;
18376;SDS011;9315;52.624;13.544;2023-04-06T13:56:25;1.30;;;1.20;;
18376;SDS011;9315;52.624;13.544;2023-04-06T13:58:53;4.03;;;2.47;;
18376;SDS011;9315;52.624;13.544;2023-04-06T14:01:25;8.57;;;7.30;;
18376;SDS011;9315;52.624;13.544;2023-04-06T14:03:52;3.13;;;2.13;;
18376;SDS011;9315;52.624;13.544;2023-04-06T14:06:20;2.33;;;1.30;;
18376;SDS011;9315;52.624;13.544;2023-04-06T14:08:57;1.92;;;1.25;;
18376;SDS011;9315;52.624;13.544;2023-04-06T14:11:24;2.20;;;1.10;;
18376;SDS011;9315;52.624;13.544;2023-04-06T14:13:52;3.83;;;1.70;;
18376;SDS011;9315;52.624;13.544;2023-04-06T14:16:23;2.60;;;1.38;;
18376;SDS011;9315;52.624;13.544;2023-04-06T14:18:53;2.97;;;1.35;;
18376;SDS011;9315;52.624;13.544;2023-04-06T14:21:20;4.65;;;4.25;;
18376;SDS011;9315;52.624;13.544;2023-04-06T14:23:48;1.42;;;1.10;;
18376;SDS011;9315;52.624;13.544;2023-04-06T14:26:15;4.88;;;1.20;;
18376;SDS011;9315;52.624;13.544;2023-04-06T14:28:42;2.15;;;1.30;;
18376;SDS011;9315;52.624;13.544;2023-04-06T14:31:13;4.47;;;1.77;;
18376;SDS011;9315;52.624;13.544;2023-04-06T14:33:44;1.40;;;1.30;;
18376;SDS011;9315;52.624;13.544;2023-04-06T14:36:12;3.47;;;1.30;;
18376;SDS011;9315;52.624;13.544;2023-04-06T14:38:40;2.60;;;1.58;;
18376;SDS011;9315;52.624;13.544;2023-04-06T14:41:14;2.65;;;1.70;;
18376;SDS011;9315;52.624;13.544;2023-04-06T14:43:47;4.38;;;1.60;;
18376;SDS011;9315;52.624;13.544;2023-04-06T14:46:14;5.10;;;1.52;;
18376;SDS011;9315;52.624;13.544;2023-04-06T14:48:42;3.42;;;1.55;;
18376;SDS011;9315;52.624;13.544;2023-04-06T14:51:09;2.15;;;1.25;;
18376;SDS011;9315;52.624;13.544;2023-04-06T14:53:36;1.77;;;1.10;;
18376;SDS011;9315;52.624;13.544;2023-04-06T14:56:04;2.35;;;1.40;;
18376;SDS011;9315;52.624;13.544;2023-04-06T14:58:32;1.98;;;1.17;;
18376;SDS011;9315;52.624;13.544;2023-04-06T15:00:59;3.17;;;1.40;;
18376;SDS011;9315;52.624;13.544;2023-04-06T15:03:28;3.08;;;1.48;;